HLON

Details ICAO HLON
Name HON
Region Libya
Timezone Africa/Tripoli (UTC+2.0)
Plans Departing 2
Arriving 5
Stats Elevation 919 ft / 280 m (AMSL)
Location 29.110104° 15.965566°
Runways 1
Magnetic Variation 2.795° E
Sunrise 2018-05-24 04:01:31 UTC / 2018-05-24 06:01:31 Local
Sunset 2018-05-24 17:47:17 UTC / 2018-05-24 19:47:17 Local
Advertisement - Login to hide

Runways

ID Width Length Bearing (true) Bearing (mag) Surface Threshold Offset Overrun Length
13 98 ft / 30 m 5,873 ft / 1,790 m 131.60° 128.81° Asphalt 0 ft / 0 m 0 ft / 0 m
31 98 ft / 30 m 5,873 ft / 1,790 m 311.61° 308.82° Asphalt 0 ft / 0 m 0 ft / 0 m

Map

Weather


0- 5 10 15 20 25 30 35+ Temperature / ° C

Clouds and Precipitation
Forecast for 2018-05-24 18:00 UTC. Updated 32 minutes ago

Ground ~20,000 ft ~40,000 ft Winds

METAR

Not found

TAF

TAF HLON 241100Z 2412/2512 VRB02KT CAVOK BECMG 2420/2422 03010KT BECMG 2504/2506 VRB02KT
Warning: Do not use this data for real-world aviation or navigation. No guarantee of current accuracy is given.